Time;durP1;ratioP1;P1;durP2;ratioP2;P2;SDS_P1;SDS_P2;PMS_P1;PMS_P2;Temp;Humidity;BMP_temperature;BMP_pressure;BME280_temperature;BME280_humidity;BME280_pressure;Samples;Min_cycle;Max_cycle;Signal;HPM_P1;HPM_P2
2023/01/28 00:01:15;0.00;0.00;0.62;0.00;0.00;0.62;1.83;0.70;;;21.30;24.70;;;;;;2254906;61;20382;-63
2023/01/28 00:04:00;0.00;0.00;0.62;0.00;0.00;0.62;1.67;0.70;;;21.30;24.60;;;;;;2255305;61;20397;-64
2023/01/28 00:06:45;0.00;0.00;0.62;0.00;0.00;0.62;1.40;0.70;;;21.30;24.50;;;;;;2255225;61;20389;-61
2023/01/28 00:09:31;0.00;0.00;0.62;0.00;0.00;0.62;1.70;0.80;;;21.30;24.50;;;;;;2255075;61;20821;-64
2023/01/28 00:12:16;0.00;0.00;0.62;0.00;0.00;0.62;1.40;0.60;;;21.30;24.40;;;;;;2255443;61;20378;-64
2023/01/28 00:15:02;0.00;0.00;0.62;0.00;0.00;0.62;1.40;0.70;;;21.30;24.40;;;;;;2255610;61;20365;-62
2023/01/28 00:17:46;0.00;0.00;0.62;0.00;0.00;0.62;1.50;0.70;;;21.30;24.40;;;;;;2254754;61;20413;-65
2023/01/28 00:20:31;0.00;0.00;0.62;0.00;0.00;0.62;1.50;0.60;;;21.30;24.40;;;;;;2252439;61;20390;-65
2023/01/28 00:23:16;0.00;0.00;0.62;0.00;0.00;0.62;1.40;0.77;;;21.30;24.40;;;;;;2254932;61;20485;-58
2023/01/28 00:26:04;0.00;0.00;0.62;0.00;0.00;0.62;1.53;0.67;;;21.30;24.40;;;;;;2255935;61;20366;-62
2023/01/28 00:28:51;0.00;0.00;0.62;0.00;0.00;0.62;1.20;0.60;;;21.30;24.40;;;;;;2255297;61;20397;-64
2023/01/28 00:31:36;0.00;0.00;0.62;0.00;0.00;0.62;1.40;0.70;;;21.30;24.40;;;;;;2254374;61;20385;-66
2023/01/28 00:34:21;0.00;0.00;0.62;0.00;0.00;0.62;1.30;0.60;;;21.30;24.40;;;;;;2255803;61;20521;-60
2023/01/28 00:37:06;0.00;0.00;0.62;0.00;0.00;0.62;1.20;0.60;;;21.30;24.50;;;;;;2255342;61;20358;-64
2023/01/28 00:39:53;0.00;0.00;0.62;0.00;0.00;0.62;1.40;0.60;;;21.30;24.40;;;;;;2255118;61;20474;-66
2023/01/28 00:42:39;0.00;0.00;0.62;0.00;0.00;0.62;1.40;0.60;;;21.30;24.50;;;;;;2255421;61;20368;-65
2023/01/28 00:45:24;0.00;0.00;0.62;0.00;0.00;0.62;1.40;0.90;;;21.30;24.50;;;;;;2254560;61;20373;-65
2023/01/28 00:48:09;0.00;0.00;0.62;0.00;0.00;0.62;1.40;0.60;;;21.30;24.50;;;;;;2254795;61;20398;-66
2023/01/28 00:50:53;0.00;0.00;0.62;0.00;0.00;0.62;1.30;0.80;;;21.30;24.50;;;;;;2255294;61;20369;-66
2023/01/28 00:53:38;0.00;0.00;0.62;0.00;0.00;0.62;1.97;0.70;;;21.30;24.50;;;;;;2254080;61;20424;-66
2023/01/28 00:56:24;0.00;0.00;0.62;0.00;0.00;0.62;1.20;0.60;;;21.30;24.60;;;;;;2255276;61;20823;-66
2023/01/28 00:59:10;0.00;0.00;0.62;0.00;0.00;0.62;1.30;0.70;;;21.30;24.50;;;;;;2255123;61;20444;-66
2023/01/28 01:02:10;0.00;0.00;0.62;0.00;0.00;0.62;2.50;0.70;;;21.30;24.50;;;;;;2254483;61;20437;-56
2023/01/28 01:04:58;0.00;0.00;0.62;0.00;0.00;0.62;1.40;0.70;;;21.30;24.50;;;;;;2255199;61;20757;-63
2023/01/28 01:07:44;0.00;0.00;0.62;0.00;0.00;0.62;1.40;0.70;;;21.30;24.60;;;;;;2254172;61;20385;-65
2023/01/28 01:10:29;0.00;0.00;0.62;0.00;0.00;0.62;6.63;0.90;;;21.30;24.60;;;;;;2255995;61;20424;-65
2023/01/28 01:13:14;0.00;0.00;0.62;0.00;0.00;0.62;1.80;0.90;;;21.30;24.60;;;;;;2254784;61;20413;-66
2023/01/28 01:16:07;0.00;0.00;0.62;0.00;0.00;0.62;1.40;0.73;;;21.30;24.60;;;;;;2254654;61;20366;-65
2023/01/28 01:18:53;0.00;0.00;0.62;0.00;0.00;0.62;1.90;0.70;;;21.30;24.60;;;;;;2255558;61;20389;-66
2023/01/28 01:21:37;0.00;0.00;0.62;0.00;0.00;0.62;1.40;0.63;;;21.30;24.50;;;;;;2254883;61;20362;-65
2023/01/28 01:24:22;0.00;0.00;0.62;0.00;0.00;0.62;1.50;0.63;;;21.30;24.50;;;;;;2254601;61;20479;-60
2023/01/28 01:27:08;0.00;0.00;0.62;0.00;0.00;0.62;1.73;0.60;;;21.30;25.10;;;;;;2255235;61;20390;-64
2023/01/28 01:29:53;0.00;0.00;0.62;0.00;0.00;0.62;1.73;0.60;;;21.30;24.50;;;;;;2254160;61;20401;-65
2023/01/28 01:32:39;0.00;0.00;0.62;0.00;0.00;0.62;1.30;0.60;;;21.30;24.50;;;;;;2255295;61;20404;-65
2023/01/28 01:35:24;0.00;0.00;0.62;0.00;0.00;0.62;3.53;0.60;;;21.40;24.60;;;;;;2255071;61;20357;-61
2023/01/28 01:38:09;0.00;0.00;0.62;0.00;0.00;0.62;1.83;0.90;;;21.40;24.60;;;;;;2254357;61;20878;-63
2023/01/28 01:40:57;0.00;0.00;0.62;0.00;0.00;0.62;1.20;0.50;;;21.40;24.60;;;;;;2255126;61;20473;-66
2023/01/28 01:43:49;0.00;0.00;0.62;0.00;0.00;0.62;1.20;0.60;;;21.30;24.50;;;;;;2255228;61;20457;-68
2023/01/28 01:46:39;0.00;0.00;0.62;0.00;0.00;0.62;1.20;0.60;;;21.30;24.50;;;;;;2254540;61;20377;-68
2023/01/28 01:49:27;0.00;0.00;0.62;0.00;0.00;0.62;1.30;0.60;;;21.30;24.50;;;;;;2254761;61;20398;-68
2023/01/28 01:52:17;0.00;0.00;0.62;0.00;0.00;0.62;1.40;0.70;;;21.30;24.50;;;;;;2254682;61;20488;-59
2023/01/28 01:55:11;0.00;0.00;0.62;0.00;0.00;0.62;1.43;0.60;;;21.30;24.50;;;;;;2251771;61;20407;-59
2023/01/28 01:58:00;0.00;0.00;0.62;0.00;0.00;0.62;1.47;0.70;;;21.30;24.40;;;;;;2251596;61;20366;-62
2023/01/28 02:00:45;0.00;0.00;0.62;0.00;0.00;0.62;1.50;0.60;;;21.30;24.30;;;;;;2248418;61;20433;-61
2023/01/28 02:03:40;0.00;0.00;0.62;0.00;0.00;0.62;1.87;0.77;;;21.40;24.30;;;;;;2252078;61;20367;-63
2023/01/28 02:06:28;0.00;0.00;0.62;0.00;0.00;0.62;1.40;0.60;;;21.30;24.10;;;;;;2251793;61;20451;-65
2023/01/28 02:09:25;0.00;0.00;0.62;0.00;0.00;0.62;1.50;0.80;;;21.30;24.10;;;;;;2251868;61;20399;-58
2023/01/28 02:12:15;0.00;0.00;0.62;0.00;0.00;0.62;1.63;0.67;;;21.30;24.00;;;;;;2252127;61;20402;-55
2023/01/28 02:15:04;0.00;0.00;0.62;0.00;0.00;0.62;1.30;0.70;;;21.30;23.90;;;;;;2250876;61;20367;-59
2023/01/28 02:17:51;0.00;0.00;0.62;0.00;0.00;0.62;2.27;0.77;;;21.30;23.90;;;;;;2252057;61;20371;-63
2023/01/28 02:20:55;0.00;0.00;0.62;0.00;0.00;0.62;1.77;0.67;;;21.30;23.80;;;;;;2251986;61;20739;-60
2023/01/28 02:24:02;0.00;0.00;0.62;0.00;0.00;0.62;1.40;0.60;;;21.30;23.80;;;;;;2251531;61;20413;-60
2023/01/28 02:27:13;0.00;0.00;0.62;0.00;0.00;0.62;1.93;0.70;;;21.30;23.70;;;;;;2251263;61;20808;-62
2023/01/28 02:30:09;0.00;0.00;0.62;0.00;0.00;0.62;2.20;0.83;;;21.30;23.70;;;;;;2251067;61;20429;-60
2023/01/28 02:32:59;0.00;0.00;0.62;0.00;0.00;0.62;1.70;0.63;;;21.30;23.60;;;;;;2252366;61;20367;-63
2023/01/28 02:35:48;0.00;0.00;0.62;0.00;0.00;0.62;1.87;0.60;;;21.30;23.60;;;;;;2251572;61;20390;-65
2023/01/28 02:38:40;0.00;0.00;0.62;0.00;0.00;0.62;1.30;0.60;;;21.20;23.50;;;;;;2252075;61;20358;-64
2023/01/28 02:41:36;0.00;0.00;0.62;0.00;0.00;0.62;2.17;1.07;;;21.20;23.40;;;;;;2251528;61;20370;-64
2023/01/28 02:44:21;0.00;0.00;0.62;0.00;0.00;0.62;1.93;0.70;;;21.20;23.40;;;;;;2250879;61;20362;-65
2023/01/28 02:50:18;0.00;0.00;0.62;0.00;0.00;0.62;1.40;0.70;;;21.20;23.30;;;;;;2251388;61;20438;-66
2023/01/28 02:56:31;0.00;0.00;0.62;0.00;0.00;0.62;1.80;0.70;;;21.20;23.30;;;;;;2251269;61;20775;-65
2023/01/28 02:59:35;0.00;0.00;0.62;0.00;0.00;0.62;1.60;0.80;;;21.20;23.30;;;;;;2250759;61;20530;-64
2023/01/28 03:02:34;0.00;0.00;0.62;0.00;0.00;0.62;2.17;0.97;;;21.10;23.20;;;;;;2251992;61;20359;-64
2023/01/28 03:05:27;0.00;0.00;0.62;0.00;0.00;0.62;1.63;0.80;;;21.10;23.20;;;;;;2251536;61;20407;-63
2023/01/28 03:36:49;0.00;0.00;0.62;0.00;0.00;0.62;2.00;1.00;;;21.00;23.00;;;;;;2250562;61;20367;-67
2023/01/28 03:40:13;0.00;0.00;0.62;0.00;0.00;0.62;1.57;1.00;;;20.90;23.00;;;;;;2244980;61;20382;-62
2023/01/28 03:43:00;0.00;0.00;0.62;0.00;0.00;0.62;2.00;1.20;;;20.90;22.90;;;;;;2243165;61;20430;-64
2023/01/28 03:45:54;0.00;0.00;0.62;0.00;0.00;0.62;2.03;0.87;;;20.90;22.90;;;;;;2253901;61;20397;-65
2023/01/28 03:48:41;0.00;0.00;0.62;0.00;0.00;0.62;1.90;0.70;;;20.80;22.80;;;;;;2251316;61;20984;-65
2023/01/28 03:51:29;0.00;0.00;0.62;0.00;0.00;0.62;1.50;0.90;;;20.90;22.80;;;;;;2250802;61;20498;-65
2023/01/28 03:54:14;0.00;0.00;0.62;0.00;0.00;0.62;2.10;0.90;;;20.80;22.80;;;;;;2251462;61;20421;-68
2023/01/28 03:57:00;0.00;0.00;0.62;0.00;0.00;0.62;1.80;0.90;;;20.80;22.80;;;;;;2251131;61;20413;-65
2023/01/28 03:59:45;0.00;0.00;0.62;0.00;0.00;0.62;2.00;1.23;;;20.80;22.80;;;;;;2250972;61;20397;-64
2023/01/28 04:02:30;0.00;0.00;0.62;0.00;0.00;0.62;1.63;0.80;;;20.80;22.90;;;;;;2250937;61;20993;-66
2023/01/28 04:05:19;0.00;0.00;0.62;0.00;0.00;0.62;1.50;0.90;;;20.80;22.90;;;;;;2250874;61;20433;-65
2023/01/28 04:08:07;0.00;0.00;0.62;0.00;0.00;0.62;1.73;0.80;;;20.80;22.90;;;;;;2251230;61;20877;-64
2023/01/28 04:11:18;0.00;0.00;0.62;0.00;0.00;0.62;1.40;0.93;;;20.80;22.80;;;;;;2251280;61;20382;-65
2023/01/28 04:14:05;0.00;0.00;0.62;0.00;0.00;0.62;2.23;1.10;;;20.80;22.80;;;;;;2250629;61;20371;-65
2023/01/28 04:17:12;0.00;0.00;0.62;0.00;0.00;0.62;1.40;0.90;;;20.80;22.80;;;;;;2250813;61;21003;-65
2023/01/28 04:19:57;0.00;0.00;0.62;0.00;0.00;0.62;1.33;0.70;;;20.80;22.70;;;;;;2250623;61;20426;-66
2023/01/28 04:22:44;0.00;0.00;0.62;0.00;0.00;0.62;1.70;0.90;;;20.80;22.70;;;;;;2251348;61;20371;-63
2023/01/28 04:25:31;0.00;0.00;0.62;0.00;0.00;0.62;1.43;0.80;;;20.70;22.70;;;;;;2250822;61;20916;-64
2023/01/28 04:28:16;0.00;0.00;0.62;0.00;0.00;0.62;1.50;0.80;;;20.70;22.70;;;;;;2250114;61;20390;-66
2023/01/28 04:31:00;0.00;0.00;0.62;0.00;0.00;0.62;1.30;0.73;;;20.70;22.60;;;;;;2251087;61;20488;-63
2023/01/28 04:33:54;0.00;0.00;0.62;0.00;0.00;0.62;1.30;0.70;;;20.70;22.60;;;;;;2250794;61;20450;-64
2023/01/28 04:36:49;0.00;0.00;0.62;0.00;0.00;0.62;1.50;0.80;;;20.70;22.60;;;;;;2250506;61;20414;-65
2023/01/28 04:40:12;0.00;0.00;0.62;0.00;0.00;0.62;2.00;1.00;;;20.70;22.60;;;;;;2250967;61;20410;-65
2023/01/28 04:43:00;0.00;0.00;0.62;0.00;0.00;0.62;1.40;0.80;;;20.60;22.50;;;;;;2250620;61;20366;-65
2023/01/28 04:45:54;0.00;0.00;0.62;0.00;0.00;0.62;1.50;0.70;;;20.60;22.50;;;;;;2251484;61;20398;-64
2023/01/28 04:48:59;0.00;0.00;0.62;0.00;0.00;0.62;2.10;0.80;;;20.60;22.50;;;;;;2251158;61;20433;-66
2023/01/28 04:51:50;0.00;0.00;0.62;0.00;0.00;0.62;1.30;0.80;;;20.60;22.50;;;;;;2251838;61;20492;-66
2023/01/28 04:54:38;0.00;0.00;0.62;0.00;0.00;0.62;2.63;0.97;;;20.60;22.50;;;;;;2251565;61;20838;-64
2023/01/28 04:57:25;0.00;0.00;0.62;0.00;0.00;0.62;2.27;1.13;;;20.60;22.50;;;;;;2250320;61;20362;-64
2023/01/28 05:00:11;0.00;0.00;0.62;0.00;0.00;0.62;2.03;0.93;;;20.60;22.50;;;;;;2251288;61;20474;-64
2023/01/28 05:02:56;0.00;0.00;0.62;0.00;0.00;0.62;1.40;0.70;;;20.60;22.50;;;;;;2251140;61;20442;-65
2023/01/28 05:05:41;0.00;0.00;0.62;0.00;0.00;0.62;1.53;1.00;;;20.60;22.50;;;;;;2251172;61;20363;-66
2023/01/28 05:08:40;0.00;0.00;0.62;0.00;0.00;0.62;1.90;1.13;;;20.50;22.40;;;;;;2251040;61;20386;-66
2023/01/28 05:11:25;0.00;0.00;0.62;0.00;0.00;0.62;2.53;1.00;;;20.50;22.50;;;;;;2251309;61;20502;-62
2023/01/28 05:14:17;0.00;0.00;0.62;0.00;0.00;0.62;2.47;1.00;;;20.50;22.50;;;;;;2251228;61;20412;-63
2023/01/28 05:17:22;0.00;0.00;0.62;0.00;0.00;0.62;1.40;0.80;;;20.50;22.50;;;;;;2252462;61;20362;-64
2023/01/28 05:20:10;0.00;0.00;0.62;0.00;0.00;0.62;1.50;0.80;;;20.50;22.50;;;;;;2252169;61;20778;-66
2023/01/28 05:22:56;0.00;0.00;0.62;0.00;0.00;0.62;1.87;0.87;;;20.50;22.50;;;;;;2253242;61;20493;-65
2023/01/28 05:25:44;0.00;0.00;0.62;0.00;0.00;0.62;1.40;0.73;;;20.50;22.50;;;;;;2252258;61;20923;-68
2023/01/28 05:28:30;0.00;0.00;0.62;0.00;0.00;0.62;1.60;0.80;;;20.40;22.40;;;;;;2250917;61;20941;-66
2023/01/28 05:31:17;0.00;0.00;0.62;0.00;0.00;0.62;3.37;1.10;;;20.40;22.30;;;;;;2252444;61;20782;-66
2023/01/28 05:34:02;0.00;0.00;0.62;0.00;0.00;0.62;1.67;0.80;;;20.40;22.30;;;;;;2251393;61;20367;-64
2023/01/28 05:36:47;0.00;0.00;0.62;0.00;0.00;0.62;1.70;0.90;;;20.40;22.50;;;;;;2252408;61;20362;-57
2023/01/28 05:39:53;0.00;0.00;0.62;0.00;0.00;0.62;1.40;0.70;;;20.40;22.50;;;;;;2252380;61;20386;-62
2023/01/28 05:42:38;0.00;0.00;0.62;0.00;0.00;0.62;1.37;0.70;;;20.40;22.50;;;;;;2249387;61;20934;-61
2023/01/28 05:45:49;0.00;0.00;0.62;0.00;0.00;0.62;1.60;0.73;;;20.40;22.40;;;;;;2247542;61;20462;-61
2023/01/28 05:48:46;0.00;0.00;0.62;0.00;0.00;0.62;1.50;0.70;;;20.40;22.40;;;;;;2246902;61;20987;-63
2023/01/28 05:51:50;0.00;0.00;0.62;0.00;0.00;0.62;1.70;0.90;;;20.40;22.40;;;;;;2252209;61;20382;-66
2023/01/28 05:54:38;0.00;0.00;0.62;0.00;0.00;0.62;1.67;0.77;;;20.30;22.40;;;;;;2251951;61;20766;-66
2023/01/28 05:57:24;0.00;0.00;0.62;0.00;0.00;0.62;1.60;0.80;;;20.30;22.50;;;;;;2250995;61;20414;-66
2023/01/28 06:00:11;0.00;0.00;0.62;0.00;0.00;0.62;2.07;1.00;;;20.30;22.50;;;;;;2252607;61;20393;-67
2023/01/28 06:03:01;0.00;0.00;0.62;0.00;0.00;0.62;2.50;0.90;;;20.30;22.40;;;;;;2253277;61;20768;-61
2023/01/28 06:05:49;0.00;0.00;0.62;0.00;0.00;0.62;3.10;0.80;;;20.30;22.40;;;;;;2253283;61;20447;-61
2023/01/28 06:08:36;0.00;0.00;0.62;0.00;0.00;0.62;1.90;0.97;;;20.30;22.40;;;;;;2252719;61;20394;-62
2023/01/28 06:11:21;0.00;0.00;0.62;0.00;0.00;0.62;1.73;1.10;;;20.30;22.40;;;;;;2251554;61;20395;-64
2023/01/28 06:14:07;0.00;0.00;0.62;0.00;0.00;0.62;1.30;0.70;;;20.30;22.30;;;;;;2252672;61;20358;-64
2023/01/28 06:17:11;0.00;0.00;0.62;0.00;0.00;0.62;1.67;0.80;;;20.30;22.50;;;;;;2253131;61;20363;-65
2023/01/28 06:20:07;0.00;0.00;0.62;0.00;0.00;0.62;2.40;0.80;;;20.20;22.40;;;;;;2251588;61;20938;-67
2023/01/28 06:22:53;0.00;0.00;0.62;0.00;0.00;0.62;1.53;0.77;;;20.20;22.30;;;;;;2252286;61;20354;-66
2023/01/28 06:25:38;0.00;0.00;0.62;0.00;0.00;0.62;1.57;0.70;;;20.20;22.40;;;;;;2251305;61;20403;-66
2023/01/28 06:28:28;0.00;0.00;0.62;0.00;0.00;0.62;1.70;0.87;;;20.20;22.40;;;;;;2252171;61;20453;-65
2023/01/28 06:31:12;0.00;0.00;0.62;0.00;0.00;0.62;1.77;0.90;;;20.20;22.30;;;;;;2253116;61;20378;-64
2023/01/28 06:33:57;0.00;0.00;0.62;0.00;0.00;0.62;1.50;0.60;;;20.20;22.30;;;;;;2252085;61;20410;-66
2023/01/28 06:36:41;0.00;0.00;0.62;0.00;0.00;0.62;1.60;0.87;;;20.20;22.20;;;;;;2252455;61;20410;-63
2023/01/28 06:39:30;0.00;0.00;0.62;0.00;0.00;0.62;2.67;0.77;;;20.20;22.10;;;;;;2252109;61;20961;-67
2023/01/28 06:42:15;0.00;0.00;0.62;0.00;0.00;0.62;1.80;0.80;;;20.20;22.30;;;;;;2252165;61;20365;-69
2023/01/28 06:45:00;0.00;0.00;0.62;0.00;0.00;0.62;2.47;0.83;;;20.20;22.40;;;;;;2256563;61;20385;-65
2023/01/28 06:47:44;0.00;0.00;0.62;0.00;0.00;0.62;1.97;0.93;;;20.20;22.40;;;;;;2254458;61;20386;-64
2023/01/28 06:50:29;0.00;0.00;0.62;0.00;0.00;0.62;3.03;0.80;;;20.20;22.40;;;;;;2256183;61;20417;-65
2023/01/28 06:53:14;0.00;0.00;0.62;0.00;0.00;0.62;1.60;0.70;;;20.10;22.40;;;;;;2255650;61;20361;-66
2023/01/28 06:56:00;0.00;0.00;0.62;0.00;0.00;0.62;1.60;0.70;;;20.20;22.50;;;;;;2255120;61;20393;-64
2023/01/28 06:58:44;0.00;0.00;0.62;0.00;0.00;0.62;3.73;0.70;;;20.20;22.50;;;;;;2256082;61;20401;-68
2023/01/28 07:01:29;0.00;0.00;0.62;0.00;0.00;0.62;1.33;0.60;;;20.10;22.50;;;;;;2258100;61;20409;-64
2023/01/28 07:04:14;0.00;0.00;0.62;0.00;0.00;0.62;2.80;0.80;;;20.10;22.50;;;;;;2254969;61;20361;-72
2023/01/28 07:06:59;0.00;0.00;0.62;0.00;0.00;0.62;1.67;0.80;;;20.10;22.50;;;;;;2255954;61;20892;-68
2023/01/28 07:09:44;0.00;0.00;0.62;0.00;0.00;0.62;1.57;0.70;;;20.10;22.50;;;;;;2255599;61;20405;-66
2023/01/28 07:12:30;0.00;0.00;0.62;0.00;0.00;0.62;1.40;0.70;;;20.10;22.50;;;;;;2258168;61;20380;-66
2023/01/28 07:15:15;0.00;0.00;0.62;0.00;0.00;0.62;1.30;0.70;;;20.10;22.50;;;;;;2255478;61;20362;-66
2023/01/28 07:17:59;0.00;0.00;0.62;0.00;0.00;0.62;1.30;0.70;;;20.10;22.60;;;;;;2254959;61;20365;-66
2023/01/28 07:20:44;0.00;0.00;0.62;0.00;0.00;0.62;1.63;0.70;;;20.10;22.60;;;;;;2256086;61;20791;-67
2023/01/28 07:23:29;0.00;0.00;0.62;0.00;0.00;0.62;1.80;0.83;;;20.10;23.10;;;;;;2255600;61;20362;-66
2023/01/28 07:26:14;0.00;0.00;0.62;0.00;0.00;0.62;1.30;0.60;;;20.10;22.60;;;;;;2254730;61;20408;-66
2023/01/28 07:29:00;0.00;0.00;0.62;0.00;0.00;0.62;1.57;0.80;;;20.10;22.60;;;;;;2255923;61;20829;-67
2023/01/28 07:31:45;0.00;0.00;0.62;0.00;0.00;0.62;1.20;0.60;;;20.10;22.60;;;;;;2255500;61;20393;-66
2023/01/28 07:34:30;0.00;0.00;0.62;0.00;0.00;0.62;1.40;0.70;;;20.10;22.60;;;;;;2255725;61;20420;-68
2023/01/28 07:37:14;0.00;0.00;0.62;0.00;0.00;0.62;1.50;0.70;;;20.10;22.60;;;;;;2255278;61;20828;-66
2023/01/28 07:39:59;0.00;0.00;0.62;0.00;0.00;0.62;2.27;0.70;;;20.10;22.70;;;;;;2255228;61;20466;-66
2023/01/28 07:42:44;0.00;0.00;0.62;0.00;0.00;0.62;1.30;0.70;;;20.10;23.20;;;;;;2255558;61;20362;-66
2023/01/28 07:45:31;0.00;0.00;0.62;0.00;0.00;0.62;1.27;0.70;;;20.10;22.70;;;;;;2258001;61;20370;-66
2023/01/28 07:48:17;0.00;0.00;0.62;0.00;0.00;0.62;1.57;0.70;;;20.10;22.70;;;;;;2254661;61;20377;-67
2023/01/28 07:51:01;0.00;0.00;0.62;0.00;0.00;0.62;1.40;0.63;;;20.10;22.70;;;;;;2255739;61;20451;-68
2023/01/28 07:53:46;0.00;0.00;0.62;0.00;0.00;0.62;1.50;0.60;;;20.10;22.70;;;;;;2255428;61;20366;-65
2023/01/28 07:56:31;0.00;0.00;0.62;0.00;0.00;0.62;1.33;0.70;;;20.10;22.70;;;;;;2253722;61;20928;-67
2023/01/28 07:59:15;0.00;0.00;0.62;0.00;0.00;0.62;1.30;0.70;;;20.10;22.70;;;;;;2254761;61;20429;-67
2023/01/28 08:02:01;0.00;0.00;0.62;0.00;0.00;0.62;1.20;0.60;;;20.10;22.70;;;;;;2254788;61;21060;-67
2023/01/28 08:04:46;0.00;0.00;0.62;0.00;0.00;0.62;1.20;0.60;;;20.10;22.80;;;;;;2255197;61;20553;-67
2023/01/28 08:07:31;0.00;0.00;0.62;0.00;0.00;0.62;1.40;0.70;;;20.10;22.80;;;;;;2257350;61;20772;-66
2023/01/28 08:10:17;0.00;0.00;0.62;0.00;0.00;0.62;1.83;0.70;;;20.10;22.80;;;;;;2254678;61;20808;-65
2023/01/28 08:13:03;0.00;0.00;0.62;0.00;0.00;0.62;1.20;0.60;;;20.10;22.70;;;;;;2255421;61;20835;-66
2023/01/28 08:15:48;0.00;0.00;0.62;0.00;0.00;0.62;1.30;0.60;;;20.10;22.80;;;;;;2255002;61;20362;-67
2023/01/28 08:18:34;0.00;0.00;0.62;0.00;0.00;0.62;1.60;0.80;;;20.20;22.80;;;;;;2254750;61;20354;-65
2023/01/28 08:21:18;0.00;0.00;0.62;0.00;0.00;0.62;2.77;0.70;;;20.10;22.80;;;;;;2255468;61;20381;-66
2023/01/28 08:24:04;0.00;0.00;0.62;0.00;0.00;0.62;1.30;0.63;;;20.10;22.80;;;;;;2254840;61;20921;-66
2023/01/28 08:26:48;0.00;0.00;0.62;0.00;0.00;0.62;2.13;0.70;;;20.10;22.80;;;;;;2255159;61;20362;-68
2023/01/28 08:29:33;0.00;0.00;0.62;0.00;0.00;0.62;1.20;0.60;;;20.10;22.80;;;;;;2255137;61;20393;-65
2023/01/28 08:32:18;0.00;0.00;0.62;0.00;0.00;0.62;1.60;0.70;;;20.20;22.80;;;;;;2254928;61;20489;-67
2023/01/28 08:35:06;0.00;0.00;0.62;0.00;0.00;0.62;1.33;0.60;;;20.20;22.90;;;;;;2255564;61;20362;-66
2023/01/28 08:37:51;0.00;0.00;0.62;0.00;0.00;0.62;1.70;1.00;;;20.20;22.80;;;;;;2254958;61;20362;-65
2023/01/28 08:40:36;0.00;0.00;0.62;0.00;0.00;0.62;1.40;0.70;;;20.20;22.80;;;;;;2255012;61;20444;-66
2023/01/28 08:43:21;0.00;0.00;0.62;0.00;0.00;0.62;1.30;0.60;;;20.20;22.80;;;;;;2255222;61;20385;-65
2023/01/28 08:46:06;0.00;0.00;0.62;0.00;0.00;0.62;1.97;1.00;;;20.20;22.80;;;;;;2254996;61;20788;-63
2023/01/28 08:48:51;0.00;0.00;0.62;0.00;0.00;0.62;1.40;0.63;;;20.20;22.90;;;;;;2255593;61;20393;-69
2023/01/28 08:51:37;0.00;0.00;0.62;0.00;0.00;0.62;1.40;0.60;;;20.20;22.80;;;;;;2255200;61;20397;-65
2023/01/28 08:54:22;0.00;0.00;0.62;0.00;0.00;0.62;1.30;0.70;;;20.20;22.80;;;;;;2256766;61;20500;-70
2023/01/28 08:57:07;0.00;0.00;0.62;0.00;0.00;0.62;1.40;0.80;;;20.20;22.80;;;;;;2255108;61;20373;-66
2023/01/28 08:59:52;0.00;0.00;0.62;0.00;0.00;0.62;1.73;0.80;;;20.20;22.90;;;;;;2255031;61;20913;-65
2023/01/28 09:02:37;0.00;0.00;0.62;0.00;0.00;0.62;1.20;0.60;;;20.20;22.90;;;;;;2254523;61;20917;-65
2023/01/28 09:05:22;0.00;0.00;0.62;0.00;0.00;0.62;1.40;0.80;;;20.20;22.80;;;;;;2255638;61;20386;-66
2023/01/28 09:08:12;0.00;0.00;0.62;0.00;0.00;0.62;1.27;0.67;;;20.20;22.80;;;;;;2255662;61;20394;-66
2023/01/28 09:10:57;0.00;0.00;0.62;0.00;0.00;0.62;1.40;0.80;;;20.20;22.90;;;;;;2256140;61;20370;-66
2023/01/28 09:13:42;0.00;0.00;0.62;0.00;0.00;0.62;1.40;0.80;;;20.20;22.80;;;;;;2255815;61;20364;-66
2023/01/28 09:16:27;0.00;0.00;0.62;0.00;0.00;0.62;1.57;0.80;;;20.20;22.90;;;;;;2255218;61;20374;-66
2023/01/28 09:19:11;0.00;0.00;0.62;0.00;0.00;0.62;1.30;0.80;;;20.20;22.90;;;;;;2255719;61;20413;-64
2023/01/28 09:21:56;0.00;0.00;0.62;0.00;0.00;0.62;1.70;0.90;;;20.20;22.90;;;;;;2256045;61;20772;-64
2023/01/28 09:24:42;0.00;0.00;0.62;0.00;0.00;0.62;1.40;0.70;;;20.30;22.90;;;;;;2255760;61;20357;-65
2023/01/28 09:27:27;0.00;0.00;0.62;0.00;0.00;0.62;1.70;0.87;;;20.20;22.90;;;;;;2255967;61;20373;-66
2023/01/28 09:30:13;0.00;0.00;0.62;0.00;0.00;0.62;1.30;0.70;;;20.20;22.80;;;;;;2256122;61;20572;-65
2023/01/28 09:32:58;0.00;0.00;0.62;0.00;0.00;0.62;2.10;0.90;;;20.20;22.80;;;;;;2256265;61;20831;-67
2023/01/28 09:35:43;0.00;0.00;0.62;0.00;0.00;0.62;1.43;0.77;;;20.30;22.90;;;;;;2255931;61;20428;-64
2023/01/28 09:38:29;0.00;0.00;0.62;0.00;0.00;0.62;1.50;0.80;;;20.30;22.90;;;;;;2255235;61;20357;-65
2023/01/28 09:41:25;0.00;0.00;0.62;0.00;0.00;0.62;1.30;0.70;;;20.30;22.90;;;;;;2256393;61;20382;-66
2023/01/28 09:44:36;0.00;0.00;0.62;0.00;0.00;0.62;1.70;0.80;;;20.30;22.90;;;;;;2255529;61;20365;-65
2023/01/28 09:47:25;0.00;0.00;0.62;0.00;0.00;0.62;1.50;0.70;;;20.30;22.90;;;;;;2255434;61;20374;-66
2023/01/28 09:50:17;0.00;0.00;0.62;0.00;0.00;0.62;1.67;0.80;;;20.30;22.90;;;;;;2255809;61;20378;-65
2023/01/28 09:53:09;0.00;0.00;0.62;0.00;0.00;0.62;1.60;0.90;;;20.30;22.90;;;;;;2255066;61;20576;-64
2023/01/28 09:55:56;0.00;0.00;0.62;0.00;0.00;0.62;1.50;0.80;;;20.30;22.90;;;;;;2274525;61;20366;-67
2023/01/28 09:58:43;0.00;0.00;0.62;0.00;0.00;0.62;1.27;0.60;;;20.30;22.90;;;;;;2255183;61;20382;-67
2023/01/28 10:01:41;0.00;0.00;0.62;0.00;0.00;0.62;1.37;0.77;;;20.30;22.90;;;;;;2255472;61;20413;-65
2023/01/28 10:04:44;0.00;0.00;0.62;0.00;0.00;0.62;2.07;1.07;;;20.30;22.90;;;;;;2255856;61;20530;-63
2023/01/28 10:07:40;0.00;0.00;0.62;0.00;0.00;0.62;1.30;0.80;;;20.30;23.20;;;;;;2255149;61;20361;-63
2023/01/28 10:10:29;0.00;0.00;0.62;0.00;0.00;0.62;1.33;0.73;;;20.30;22.90;;;;;;2255608;61;20779;-65
2023/01/28 10:13:27;0.00;0.00;0.62;0.00;0.00;0.62;1.40;0.70;;;20.30;22.90;;;;;;2255269;61;20777;-65
2023/01/28 10:16:23;0.00;0.00;0.62;0.00;0.00;0.62;1.50;0.80;;;20.30;22.90;;;;;;2255354;61;20365;-66
2023/01/28 10:19:18;0.00;0.00;0.62;0.00;0.00;0.62;1.50;0.80;;;20.30;22.90;;;;;;2255797;61;20385;-66
2023/01/28 10:22:08;0.00;0.00;0.62;0.00;0.00;0.62;1.40;0.80;;;20.30;22.90;;;;;;2255677;61;21145;-65
2023/01/28 10:25:00;0.00;0.00;0.62;0.00;0.00;0.62;1.83;0.90;;;20.30;22.90;;;;;;2255927;61;20422;-65
2023/01/28 10:27:48;0.00;0.00;0.62;0.00;0.00;0.62;1.30;0.70;;;20.30;22.90;;;;;;2255235;61;20386;-66
2023/01/28 10:30:37;0.00;0.00;0.62;0.00;0.00;0.62;1.57;0.80;;;20.30;22.90;;;;;;2255191;61;20382;-69
2023/01/28 10:33:34;0.00;0.00;0.62;0.00;0.00;0.62;1.50;0.90;;;20.30;22.90;;;;;;2255307;61;20369;-66
2023/01/28 10:36:19;0.00;0.00;0.62;0.00;0.00;0.62;1.73;0.90;;;20.30;22.90;;;;;;2255190;61;20462;-66
2023/01/28 10:39:05;0.00;0.00;0.62;0.00;0.00;0.62;1.50;0.80;;;20.30;22.90;;;;;;2255376;61;20381;-66
2023/01/28 10:41:50;0.00;0.00;0.62;0.00;0.00;0.62;2.03;1.10;;;20.40;23.00;;;;;;2255236;61;20758;-67
2023/01/28 10:44:40;0.00;0.00;0.62;0.00;0.00;0.62;1.40;0.80;;;20.30;22.90;;;;;;2255194;61;20936;-66
2023/01/28 10:47:32;0.00;0.00;0.62;0.00;0.00;0.62;1.87;0.90;;;20.40;23.00;;;;;;2255208;61;20361;-66
2023/01/28 10:50:23;0.00;0.00;0.62;0.00;0.00;0.62;1.33;0.70;;;20.40;23.00;;;;;;2255710;61;20381;-72
2023/01/28 10:53:08;0.00;0.00;0.62;0.00;0.00;0.62;1.43;0.80;;;20.40;23.00;;;;;;2255075;61;20362;-66
2023/01/28 10:55:58;0.00;0.00;0.62;0.00;0.00;0.62;1.50;0.97;;;20.40;23.00;;;;;;2275507;61;20385;-67
2023/01/28 10:58:58;0.00;0.00;0.62;0.00;0.00;0.62;2.33;1.00;;;20.40;23.00;;;;;;2254912;61;20468;-66
2023/01/28 11:01:46;0.00;0.00;0.62;0.00;0.00;0.62;1.80;1.00;;;20.40;23.00;;;;;;2255581;61;20465;-65
2023/01/28 11:04:33;0.00;0.00;0.62;0.00;0.00;0.62;1.70;1.00;;;20.40;23.00;;;;;;2255232;61;20802;-65
2023/01/28 11:07:21;0.00;0.00;0.62;0.00;0.00;0.62;1.60;1.03;;;20.40;23.00;;;;;;2254776;61;20933;-69
2023/01/28 11:10:27;0.00;0.00;0.62;0.00;0.00;0.62;1.50;1.00;;;20.40;23.00;;;;;;2255533;61;20945;-67
2023/01/28 11:13:18;0.00;0.00;0.62;0.00;0.00;0.62;1.93;0.87;;;20.40;23.00;;;;;;2254838;61;20449;-66
2023/01/28 11:16:10;0.00;0.00;0.62;0.00;0.00;0.62;1.90;0.90;;;20.40;23.00;;;;;;2255232;61;20400;-66
2023/01/28 11:19:01;0.00;0.00;0.62;0.00;0.00;0.62;1.97;1.17;;;20.40;23.00;;;;;;2255139;61;20437;-66
2023/01/28 11:21:53;0.00;0.00;0.62;0.00;0.00;0.62;2.00;1.10;;;20.40;23.00;;;;;;2255176;61;20670;-66
2023/01/28 11:24:42;0.00;0.00;0.62;0.00;0.00;0.62;1.63;1.00;;;20.40;23.00;;;;;;2255688;61;20769;-67
2023/01/28 11:27:30;0.00;0.00;0.62;0.00;0.00;0.62;2.10;1.20;;;20.40;23.00;;;;;;2254836;61;20439;-66
2023/01/28 11:30:23;0.00;0.00;0.62;0.00;0.00;0.62;1.83;1.07;;;20.40;23.00;;;;;;2255029;61;20987;-67
2023/01/28 11:33:16;0.00;0.00;0.62;0.00;0.00;0.62;2.17;1.07;;;20.40;23.00;;;;;;2255353;61;20446;-65
2023/01/28 11:36:12;0.00;0.00;0.62;0.00;0.00;0.62;1.60;1.00;;;20.40;23.00;;;;;;2255242;61;20417;-67
2023/01/28 11:39:00;0.00;0.00;0.62;0.00;0.00;0.62;1.60;1.00;;;20.40;23.00;;;;;;2255499;61;20386;-67
2023/01/28 11:41:46;0.00;0.00;0.62;0.00;0.00;0.62;2.10;1.10;;;20.40;23.00;;;;;;2255418;61;20453;-66